createdAt,value
2022-12-09T00:01:19.510Z,1.74
2022-12-09T00:03:47.197Z,1.72
2022-12-09T00:06:17.434Z,1.73
2022-12-09T00:08:45.065Z,1.73
2022-12-09T00:11:13.432Z,1.73
2022-12-09T00:13:41.145Z,1.73
2022-12-09T00:16:10.750Z,1.73
2022-12-09T00:18:38.357Z,1.73
2022-12-09T00:21:34.222Z,1.74
2022-12-09T00:24:02.572Z,1.73
2022-12-09T00:26:29.444Z,1.71
2022-12-09T00:28:57.253Z,1.69
2022-12-09T00:31:27.119Z,1.67
2022-12-09T00:33:59.874Z,1.63
2022-12-09T00:36:28.500Z,1.62
2022-12-09T00:38:57.253Z,1.61
2022-12-09T00:41:24.209Z,1.60
2022-12-09T00:43:51.455Z,1.58
2022-12-09T00:46:18.591Z,1.58
2022-12-09T00:48:46.361Z,1.56
2022-12-09T00:51:16.631Z,1.54
2022-12-09T00:53:43.552Z,1.52
2022-12-09T00:56:10.556Z,1.50
2022-12-09T00:58:37.297Z,1.49
2022-12-09T01:01:04.152Z,1.48
2022-12-09T01:03:31.211Z,1.47
2022-12-09T01:05:58.089Z,1.46
2022-12-09T01:08:25.202Z,1.46
2022-12-09T01:10:52.259Z,1.46
2022-12-09T01:13:19.095Z,1.47
2022-12-09T01:15:47.565Z,1.45
2022-12-09T01:18:14.401Z,1.43
2022-12-09T01:20:41.272Z,1.42
2022-12-09T01:23:08.557Z,1.42
2022-12-09T01:25:38.064Z,1.42
2022-12-09T01:28:05.079Z,1.41
2022-12-09T01:30:32.106Z,1.40
2022-12-09T01:32:58.850Z,1.39
2022-12-09T01:35:26.496Z,1.39
2022-12-09T01:37:53.213Z,1.38
2022-12-09T01:40:20.239Z,1.38
2022-12-09T01:42:50.061Z,1.39
2022-12-09T01:45:21.359Z,1.39
2022-12-09T01:48:00.364Z,1.38
2022-12-09T01:50:28.925Z,1.38
2022-12-09T01:52:56.877Z,1.37
2022-12-09T01:55:25.517Z,1.38
2022-12-09T01:57:53.606Z,1.39
2022-12-09T02:00:20.925Z,1.38
2022-12-09T02:02:51.590Z,1.40
2022-12-09T02:05:21.892Z,1.41
2022-12-09T02:07:53.808Z,1.43
2022-12-09T02:10:22.555Z,1.45
2022-12-09T02:13:36.609Z,1.46
2022-12-09T02:16:09.676Z,1.46
2022-12-09T02:18:45.980Z,1.45
2022-12-09T02:21:28.995Z,1.44
2022-12-09T02:24:08.311Z,1.44
2022-12-09T02:26:44.056Z,1.44
2022-12-09T02:29:37.381Z,1.45
2022-12-09T02:32:22.950Z,1.45
2022-12-09T02:35:13.022Z,1.43
2022-12-09T02:37:56.550Z,1.43
2022-12-09T02:40:35.489Z,1.43
2022-12-09T02:43:06.560Z,1.43
2022-12-09T02:45:36.505Z,1.44
2022-12-09T02:48:05.207Z,1.45
2022-12-09T02:50:36.759Z,1.44
2022-12-09T02:53:09.896Z,1.43
2022-12-09T02:55:40.007Z,1.41
2022-12-09T02:58:06.925Z,1.40
2022-12-09T03:00:34.986Z,1.39
2022-12-09T03:03:04.745Z,1.38
2022-12-09T03:05:55.729Z,1.36
2022-12-09T03:08:28.512Z,1.34
2022-12-09T03:11:07.128Z,1.34
2022-12-09T03:13:51.256Z,1.33
2022-12-09T03:16:36.651Z,1.31
2022-12-09T03:19:06.693Z,1.27
2022-12-09T03:21:40.679Z,1.23
2022-12-09T03:24:09.784Z,1.20
2022-12-09T03:26:38.360Z,1.18
2022-12-09T03:29:09.261Z,1.14
2022-12-09T03:31:38.233Z,1.11
2022-12-09T03:34:08.539Z,1.08
2022-12-09T03:36:40.956Z,1.05
2022-12-09T03:39:16.503Z,1.01
2022-12-09T03:41:47.705Z,0.96
2022-12-09T03:44:25.441Z,0.92
2022-12-09T03:46:52.685Z,0.89
2022-12-09T03:49:19.770Z,0.86
2022-12-09T03:51:56.619Z,0.83
2022-12-09T03:54:33.364Z,0.79
2022-12-09T03:57:01.357Z,0.75
2022-12-09T03:59:32.881Z,0.69
2022-12-09T04:02:03.524Z,0.64
2022-12-09T04:04:30.586Z,0.60
2022-12-09T04:06:58.119Z,0.57
2022-12-09T04:09:25.313Z,0.55
2022-12-09T04:11:52.464Z,0.53
2022-12-09T04:14:19.353Z,0.51
2022-12-09T04:16:46.335Z,0.47
2022-12-09T04:19:13.211Z,0.39
2022-12-09T04:21:40.440Z,0.33
2022-12-09T04:24:07.978Z,0.29
2022-12-09T04:26:35.673Z,0.25
2022-12-09T04:29:03.104Z,0.21
2022-12-09T04:31:29.986Z,0.18
2022-12-09T04:33:56.950Z,0.14
2022-12-09T04:36:24.377Z,0.09
2022-12-09T04:38:51.725Z,0.04
2022-12-09T04:41:19.604Z,-0.01
2022-12-09T04:43:48.734Z,-0.07
2022-12-09T04:46:17.967Z,-0.12
2022-12-09T04:48:45.743Z,-0.15
2022-12-09T04:51:15.502Z,-0.17
2022-12-09T04:53:43.374Z,-0.24
2022-12-09T04:56:13.845Z,-0.29
2022-12-09T04:58:41.026Z,-0.33
2022-12-09T05:01:13.724Z,-0.36
2022-12-09T05:03:41.340Z,-0.39
2022-12-09T05:06:12.912Z,-0.46
2022-12-09T05:08:41.690Z,-0.53
2022-12-09T05:11:10.019Z,-0.58
2022-12-09T05:13:37.558Z,-0.63
2022-12-09T05:16:15.400Z,-0.66
2022-12-09T05:18:45.144Z,-0.68
2022-12-09T05:21:16.517Z,-0.69
2022-12-09T05:23:44.413Z,-0.71
2022-12-09T05:26:15.280Z,-0.73
2022-12-09T05:28:42.480Z,-0.76
2022-12-09T05:31:14.671Z,-0.79
2022-12-09T05:33:43.138Z,-0.82
2022-12-09T05:36:13.166Z,-0.86
2022-12-09T05:38:41.094Z,-0.91
2022-12-09T05:41:08.265Z,-0.94
2022-12-09T05:43:36.889Z,-0.96
2022-12-09T05:46:06.052Z,-0.94
2022-12-09T05:48:34.663Z,-0.93
2022-12-09T05:51:03.586Z,-0.89
2022-12-09T05:53:32.135Z,-0.89
2022-12-09T05:55:59.235Z,-0.90
2022-12-09T05:58:26.400Z,-0.88
2022-12-09T06:00:56.392Z,-0.87
2022-12-09T06:03:24.098Z,-0.91
2022-12-09T06:14:00.361Z,-0.87
2022-12-09T06:16:59.531Z,-0.91
2022-12-09T06:19:36.874Z,-0.94
2022-12-09T06:22:15.683Z,-0.95
2022-12-09T06:25:06.982Z,-0.98
2022-12-09T06:28:11.182Z,-1.03
2022-12-09T06:35:49.897Z,-1.19
2022-12-09T06:42:27.085Z,-1.29
2022-12-09T06:44:54.521Z,-1.30
2022-12-09T06:47:21.499Z,-1.31
2022-12-09T06:50:27.902Z,-1.33
2022-12-09T06:54:03.773Z,-1.34
2022-12-09T06:57:28.035Z,-1.34
2022-12-09T07:04:06.294Z,-1.33
2022-12-09T07:11:14.714Z,-1.29
2022-12-09T07:14:22.299Z,-1.30
2022-12-09T07:17:44.680Z,-1.31
2022-12-09T07:21:04.476Z,-1.28
2022-12-09T07:25:26.204Z,-1.26
2022-12-09T07:30:26.254Z,-1.20
2022-12-09T07:49:27.619Z,-0.18
2022-12-09T07:57:31.863Z,-0.02
2022-12-09T08:08:17.746Z,0.08
2022-12-09T08:11:35.175Z,0.11
2022-12-09T08:14:51.299Z,0.09
2022-12-09T08:17:41.952Z,0.11
2022-12-09T08:20:42.040Z,0.13
2022-12-09T08:23:25.005Z,0.14
2022-12-09T08:26:30.823Z,0.14
2022-12-09T08:29:26.194Z,0.15
2022-12-09T08:32:23.303Z,0.21
2022-12-09T08:35:17.685Z,0.28
2022-12-09T08:39:03.574Z,0.37
2022-12-09T08:42:05.071Z,0.50
2022-12-09T08:45:04.751Z,0.64
2022-12-09T08:47:32.084Z,0.79
2022-12-09T08:50:00.892Z,0.94
2022-12-09T08:53:19.760Z,1.12
2022-12-09T08:56:07.917Z,1.28
2022-12-09T08:58:45.999Z,1.45
2022-12-09T09:01:25.145Z,1.63
2022-12-09T09:03:56.680Z,1.83
2022-12-09T09:06:24.985Z,2.03
2022-12-09T09:08:58.268Z,2.21
2022-12-09T09:11:48.864Z,2.36
2022-12-09T09:14:27.821Z,2.55
2022-12-09T09:16:55.281Z,2.74
2022-12-09T09:19:25.764Z,2.91
2022-12-09T09:21:58.720Z,3.05
2022-12-09T09:24:56.260Z,3.18
2022-12-09T09:27:55.973Z,3.31
2022-12-09T09:30:22.923Z,3.35
2022-12-09T09:32:50.463Z,3.38
2022-12-09T09:35:17.406Z,3.43
2022-12-09T09:37:45.253Z,3.49
2022-12-09T09:40:12.897Z,3.55
2022-12-09T09:42:47.832Z,3.62
2022-12-09T09:45:19.314Z,3.68
2022-12-09T09:47:54.405Z,3.73
2022-12-09T09:50:37.814Z,3.75
2022-12-09T09:53:24.044Z,3.85
2022-12-09T09:55:58.282Z,4.00
2022-12-09T09:58:48.791Z,4.17
2022-12-09T10:01:18.085Z,4.36
2022-12-09T10:03:52.170Z,4.50
2022-12-09T10:06:35.285Z,4.63
2022-12-09T10:09:24.061Z,4.72
2022-12-09T10:12:00.546Z,4.81
2022-12-09T10:14:32.313Z,4.87
2022-12-09T10:17:15.666Z,4.95
2022-12-09T10:19:48.139Z,4.94
2022-12-09T10:22:21.464Z,4.97
2022-12-09T10:25:07.380Z,5.03
2022-12-09T10:28:17.430Z,5.09
2022-12-09T10:30:45.318Z,5.15
2022-12-09T10:33:14.883Z,5.24
2022-12-09T10:35:42.382Z,5.35
2022-12-09T10:38:20.268Z,5.44
2022-12-09T10:40:57.075Z,5.52
2022-12-09T10:43:39.246Z,5.59
2022-12-09T10:46:21.740Z,5.64
2022-12-09T10:48:49.755Z,5.71
2022-12-09T10:51:30.234Z,5.77
2022-12-09T10:54:13.381Z,5.80
2022-12-09T10:57:03.650Z,5.78
2022-12-09T10:59:32.091Z,5.68
2022-12-09T11:02:02.017Z,5.54
2022-12-09T11:04:32.861Z,5.42
2022-12-09T11:07:13.102Z,5.30
2022-12-09T11:09:49.305Z,5.23
2022-12-09T11:12:39.921Z,5.23
2022-12-09T11:15:10.984Z,5.27
2022-12-09T11:17:42.422Z,5.24
2022-12-09T11:20:21.750Z,5.21
2022-12-09T11:23:19.869Z,5.12
2022-12-09T11:26:20.844Z,4.99
2022-12-09T11:29:18.603Z,4.84
2022-12-09T11:31:47.199Z,4.68
2022-12-09T11:34:19.880Z,4.60
2022-12-09T11:36:52.918Z,4.54
2022-12-09T11:39:29.202Z,4.42
2022-12-09T11:42:45.176Z,4.28
2022-12-09T11:45:49.184Z,4.04
2022-12-09T11:49:15.253Z,3.85
2022-12-09T11:52:27.533Z,3.65
2022-12-09T12:02:54.021Z,3.27
2022-12-09T12:06:02.199Z,3.19
2022-12-09T12:09:14.990Z,3.15
2022-12-09T12:13:18.413Z,3.06
2022-12-09T12:21:35.518Z,2.96
2022-12-09T12:33:59.751Z,2.90
2022-12-09T12:37:04.348Z,2.89
2022-12-09T12:40:43.402Z,2.91
2022-12-09T12:44:32.006Z,2.95
2022-12-09T12:48:01.378Z,2.95
2022-12-09T12:51:07.863Z,2.93
2022-12-09T12:54:46.342Z,2.94
2022-12-09T12:58:19.005Z,2.97
2022-12-09T13:01:24.769Z,2.99
2022-12-09T13:05:10.789Z,3.01
2022-12-09T13:13:07.820Z,3.04
2022-12-09T13:21:21.136Z,3.00
2022-12-09T13:25:22.575Z,3.02
2022-12-09T13:28:52.714Z,3.05
2022-12-09T13:32:44.566Z,3.07
2022-12-09T13:36:30.358Z,3.08
2022-12-09T13:40:55.009Z,3.07
2022-12-09T13:44:45.673Z,3.07
2022-12-09T13:48:27.996Z,3.06
2022-12-09T13:51:41.750Z,3.09
2022-12-09T13:55:40.799Z,3.09
2022-12-09T14:04:00.190Z,2.99
2022-12-09T14:07:56.420Z,2.98
2022-12-09T14:11:57.338Z,2.97
2022-12-09T14:19:50.139Z,2.88
2022-12-09T14:23:33.695Z,2.78
2022-12-09T14:44:23.696Z,3.08
2022-12-09T14:46:54.594Z,3.21
2022-12-09T14:49:27.842Z,3.19
2022-12-09T14:52:00.832Z,3.17
2022-12-09T14:54:38.569Z,3.13
2022-12-09T14:57:19.389Z,3.07
2022-12-09T14:59:53.061Z,3.02
2022-12-09T15:02:30.190Z,2.97
2022-12-09T15:05:01.629Z,2.92
2022-12-09T15:07:34.466Z,2.88
2022-12-09T15:10:17.488Z,2.86
2022-12-09T15:12:49.621Z,2.82
2022-12-09T15:15:39.805Z,2.79
2022-12-09T15:18:22.042Z,2.79
2022-12-09T15:20:57.007Z,2.76
2022-12-09T15:23:28.295Z,2.75
2022-12-09T15:25:59.115Z,2.74
2022-12-09T15:28:32.483Z,2.74
2022-12-09T15:31:02.287Z,2.74
2022-12-09T15:33:38.875Z,2.75
2022-12-09T15:36:21.869Z,2.74
2022-12-09T15:38:58.398Z,2.75
2022-12-09T15:41:59.638Z,2.76
2022-12-09T15:44:32.982Z,2.77
2022-12-09T15:47:09.853Z,2.77
2022-12-09T15:49:57.785Z,2.77
2022-12-09T15:52:31.607Z,2.77
2022-12-09T15:55:06.966Z,2.77
2022-12-09T15:57:36.038Z,2.76
2022-12-09T16:00:05.516Z,2.74
2022-12-09T16:02:38.196Z,2.70
2022-12-09T16:05:09.707Z,2.66
2022-12-09T16:07:38.500Z,2.59
2022-12-09T16:10:10.109Z,2.51
2022-12-09T16:12:40.271Z,2.45
2022-12-09T16:15:12.509Z,2.40
2022-12-09T16:17:55.630Z,2.35
2022-12-09T16:20:34.828Z,2.29
2022-12-09T16:23:06.214Z,2.23
2022-12-09T16:25:43.397Z,2.18
2022-12-09T16:28:24.327Z,2.12
2022-12-09T16:30:58.856Z,2.06
2022-12-09T16:33:29.197Z,2.00
2022-12-09T16:36:05.208Z,1.95
2022-12-09T16:38:35.638Z,1.91
2022-12-09T16:41:08.363Z,1.86
2022-12-09T16:43:52.184Z,1.82
2022-12-09T16:46:20.300Z,1.77
2022-12-09T16:48:49.788Z,1.71
2022-12-09T16:51:25.035Z,1.64
2022-12-09T16:53:54.452Z,1.58
2022-12-09T16:56:28.276Z,1.50
2022-12-09T16:58:56.991Z,1.42
2022-12-09T17:01:34.099Z,1.34
2022-12-09T17:04:05.731Z,1.28
2022-12-09T17:06:33.867Z,1.22
2022-12-09T17:09:02.006Z,1.16
2022-12-09T17:11:30.231Z,1.10
2022-12-09T17:13:58.488Z,1.04
2022-12-09T17:16:26.954Z,0.99
2022-12-09T17:18:55.384Z,0.94
2022-12-09T17:21:23.527Z,0.91
2022-12-09T17:23:51.698Z,0.88
2022-12-09T17:26:20.800Z,0.84
2022-12-09T17:28:50.304Z,0.81
2022-12-09T17:31:21.881Z,0.78
2022-12-09T17:33:50.966Z,0.75
2022-12-09T17:36:19.685Z,0.73
2022-12-09T17:38:49.500Z,0.69
2022-12-09T17:41:20.996Z,0.66
2022-12-09T17:43:49.544Z,0.63
2022-12-09T17:46:18.025Z,0.61
2022-12-09T17:48:46.197Z,0.58
2022-12-09T17:51:18.182Z,0.56
2022-12-09T17:53:47.638Z,0.54
2022-12-09T17:56:20.039Z,0.53
2022-12-09T17:58:58.472Z,0.52
2022-12-09T18:01:27.464Z,0.50
2022-12-09T18:04:01.586Z,0.48
2022-12-09T18:06:34.659Z,0.46
2022-12-09T18:09:05.265Z,0.46
2022-12-09T18:11:34.008Z,0.45
2022-12-09T18:14:03.164Z,0.44
2022-12-09T18:16:31.844Z,0.43
2022-12-09T18:19:10.406Z,0.42
2022-12-09T18:21:39.884Z,0.42
2022-12-09T18:24:08.847Z,0.42
2022-12-09T18:26:41.572Z,0.41
2022-12-09T18:29:12.183Z,0.41
2022-12-09T18:31:40.983Z,0.40
2022-12-09T18:34:09.051Z,0.39
2022-12-09T18:36:37.340Z,0.38
2022-12-09T18:39:05.510Z,0.37
2022-12-09T18:41:34.572Z,0.37
2022-12-09T18:44:05.466Z,0.38
2022-12-09T18:46:37.097Z,0.37
2022-12-09T18:49:08.325Z,0.37
2022-12-09T18:51:37.260Z,0.37
2022-12-09T18:54:07.215Z,0.38
2022-12-09T18:56:37.185Z,0.39
2022-12-09T18:59:07.031Z,0.39
2022-12-09T19:01:40.444Z,0.39
2022-12-09T19:04:34.433Z,0.39
2022-12-09T19:07:04.489Z,0.39
2022-12-09T19:09:34.950Z,0.39
2022-12-09T19:12:37.778Z,0.39
2022-12-09T19:14:53.216Z,0.38
2022-12-09T19:17:22.009Z,0.39
2022-12-09T19:19:54.132Z,0.40
2022-12-09T19:22:26.105Z,0.41
2022-12-09T19:24:54.721Z,0.42
2022-12-09T19:36:10.964Z,0.38
2022-12-09T19:51:24.509Z,0.47
2022-12-09T19:54:02.626Z,0.52
2022-12-09T19:56:33.807Z,0.57
2022-12-09T19:59:16.333Z,0.63
2022-12-09T20:01:48.476Z,0.66
2022-12-09T20:04:48.842Z,0.68
2022-12-09T20:07:20.110Z,0.70
2022-12-09T20:09:53.788Z,0.72
2022-12-09T20:12:25.340Z,0.73
2022-12-09T20:15:00.787Z,0.75
2022-12-09T20:17:32.219Z,0.77
2022-12-09T20:20:07.386Z,0.77
2022-12-09T20:22:45.342Z,0.76
2022-12-09T20:25:23.063Z,0.77
2022-12-09T20:27:53.881Z,0.76
2022-12-09T20:30:29.627Z,0.76
2022-12-09T20:32:59.332Z,0.76
2022-12-09T20:35:28.775Z,0.77
2022-12-09T20:37:57.422Z,0.79
2022-12-09T20:40:27.675Z,0.79
2022-12-09T20:43:03.869Z,0.81
2022-12-09T20:45:39.480Z,0.81
2022-12-09T20:48:12.822Z,0.82
2022-12-09T20:50:52.519Z,0.83
2022-12-09T20:53:28.337Z,0.80
2022-12-09T20:56:01.700Z,0.80
2022-12-09T20:58:32.698Z,0.79
2022-12-09T21:01:09.016Z,0.79
2022-12-09T21:03:40.310Z,0.81
2022-12-09T21:06:15.584Z,0.82
2022-12-09T21:08:49.557Z,0.83
2022-12-09T21:11:24.918Z,0.82
2022-12-09T21:13:58.780Z,0.82
2022-12-09T21:16:37.498Z,0.83
2022-12-09T21:19:16.724Z,0.84
2022-12-09T21:21:53.401Z,0.87
2022-12-09T21:24:25.157Z,0.88
2022-12-09T21:26:57.530Z,0.87
2022-12-09T21:29:34.154Z,0.86
2022-12-09T21:32:03.056Z,0.84
2022-12-09T21:34:33.884Z,0.83
2022-12-09T21:37:05.913Z,0.82
2022-12-09T21:40:11.733Z,0.81
2022-12-09T21:42:43.837Z,0.81
2022-12-09T21:45:16.842Z,0.82
2022-12-09T21:47:51.713Z,0.82
2022-12-09T21:50:22.006Z,0.80
2022-12-09T21:52:52.260Z,0.78
2022-12-09T21:55:24.565Z,0.79
2022-12-09T21:57:57.834Z,0.79
2022-12-09T22:00:33.631Z,0.78
2022-12-09T22:03:11.913Z,0.79
2022-12-09T22:05:40.712Z,0.80
2022-12-09T22:08:31.965Z,0.81
2022-12-09T22:11:21.997Z,0.80
2022-12-09T22:14:01.084Z,0.79
2022-12-09T22:16:43.131Z,0.78
2022-12-09T22:19:21.189Z,0.79
2022-12-09T22:21:53.050Z,0.79
2022-12-09T22:24:35.909Z,0.79
2022-12-09T22:27:12.255Z,0.79
2022-12-09T22:29:55.468Z,0.78
2022-12-09T22:32:37.840Z,0.78
2022-12-09T22:35:16.160Z,0.77
2022-12-09T22:37:44.889Z,0.77
2022-12-09T22:40:23.088Z,0.77
2022-12-09T22:42:57.932Z,0.78
2022-12-09T22:45:27.993Z,0.80
2022-12-09T22:48:00.514Z,0.81
2022-12-09T22:50:50.174Z,0.80
2022-12-09T22:53:22.149Z,0.80
2022-12-09T22:55:56.658Z,0.78
2022-12-09T22:58:28.563Z,0.78
2022-12-09T23:01:00.972Z,0.78
2022-12-09T23:03:32.443Z,0.79
2022-12-09T23:06:03.699Z,0.80
2022-12-09T23:08:41.027Z,0.78
2022-12-09T23:11:24.354Z,0.79
2022-12-09T23:13:55.701Z,0.78
2022-12-09T23:16:50.311Z,0.77
2022-12-09T23:19:26.469Z,0.77
2022-12-09T23:22:00.622Z,0.79
2022-12-09T23:24:36.003Z,0.80
2022-12-09T23:27:08.518Z,0.80
2022-12-09T23:29:43.018Z,0.80
2022-12-09T23:32:25.922Z,0.80
2022-12-09T23:35:07.077Z,0.78
2022-12-09T23:37:42.530Z,0.77
2022-12-09T23:40:12.019Z,0.78
2022-12-09T23:42:40.724Z,0.78
2022-12-09T23:45:15.615Z,0.77
2022-12-09T23:47:57.698Z,0.77
2022-12-09T23:50:29.447Z,0.77
2022-12-09T23:53:03.329Z,0.77
2022-12-09T23:55:35.228Z,0.76
2022-12-09T23:58:11.209Z,0.74
